Ile Lifou, New Caledonia
Current Conditions -  °F | °C
As of 9:00 PM on Wednesday 26 Nov 2014 (Local Time) from NWWW Reporting Station
Broken Clouds Broken Clouds  
Wind Chill: 72°   Ceiling: 6000
Heat Index: 72°   Visibility: 6mi
Dew Point: 61°   Wind: 9mph
Humidity: 69%   Direction: 120°ESE
Pressure: 29.97"   Gusts: NA
Location:  20.9°S, 167.2°E
Report Text: NWWW 261000Z AUTO 12008KT 9999 BKN060 22/16 Q1015
Loading
Personal Weather Stations






























Interactive Weather Map New forecast layout! Learn more

10-Day Weather Forecast

Advertisements
Track Severe Weather on mobile